Time;durP1;ratioP1;P1;durP2;ratioP2;P2;SDS_P1;SDS_P2;PMS_P1;PMS_P2;Temp;Humidity;BMP_temperature;BMP_pressure;BME280_temperature;BME280_humidity;BME280_pressure;Samples;Min_cycle;Max_cycle;Signal;HPM_P1;HPM_P2
2022/11/29 00:01:24;;;;;;;10.07;6.38;;;;;;;11.78;67.12;96891.47;4845215;28;20246;-75
2022/11/29 00:03:50;;;;;;;7.78;5.53;;;;;;;11.72;67.00;96895.16;4859263;29;20290;-75
2022/11/29 00:06:18;;;;;;;7.72;5.45;;;;;;;11.74;67.15;96893.06;4863518;29;20292;-75
2022/11/29 00:08:44;;;;;;;10.52;6.57;;;;;;;11.70;66.83;96889.38;4872565;28;20263;-75
2022/11/29 00:14:22;;;;;;;8.80;5.82;;;;;;;11.74;66.96;96898.28;4873494;28;20259;-75
2022/11/29 00:16:53;;;;;;;9.80;6.80;;;;;;;11.84;66.39;96892.31;4871598;28;20646;-75
2022/11/29 00:19:18;;;;;;;10.40;6.78;;;;;;;11.81;66.87;96904.03;4880201;28;20723;-75
2022/11/29 00:21:44;;;;;;;9.95;5.68;;;;;;;11.84;66.82;96907.16;4873301;28;20282;-75
2022/11/29 00:24:09;;;;;;;9.15;5.97;;;;;;;11.80;66.65;96899.06;4877432;28;20255;-76
2022/11/29 00:26:36;;;;;;;10.63;6.65;;;;;;;11.81;66.32;96898.03;4861018;29;20204;-75
2022/11/29 00:29:01;;;;;;;12.32;7.60;;;;;;;11.79;66.92;96907.94;4873777;28;20148;-75
2022/11/29 00:31:29;;;;;;;11.52;7.28;;;;;;;11.80;66.53;96897.22;4850257;29;20370;-76
2022/11/29 00:33:56;;;;;;;11.65;7.38;;;;;;;11.73;66.81;96896.69;4880552;28;20389;-75
2022/11/29 00:36:21;;;;;;;11.15;6.72;;;;;;;11.73;66.85;96904.53;4877370;28;20387;-75
2022/11/29 00:38:46;;;;;;;13.82;7.45;;;;;;;11.81;66.39;96909.22;4875175;28;20191;-76
2022/11/29 00:41:12;;;;;;;9.35;6.57;;;;;;;11.83;66.73;96901.16;4879530;28;20101;-75
2022/11/29 00:43:38;;;;;;;10.48;6.45;;;;;;;11.80;66.70;96899.06;4867296;28;20212;-75
2022/11/29 00:46:04;;;;;;;10.05;6.43;;;;;;;11.81;66.83;96901.41;4869833;28;20280;-75
2022/11/29 00:48:30;;;;;;;11.30;7.35;;;;;;;11.87;66.36;96899.59;4873424;28;20772;-75
2022/11/29 00:50:55;;;;;;;13.73;6.72;;;;;;;11.88;66.62;96906.38;4872646;28;20290;-75
2022/11/29 00:53:21;;;;;;;13.80;7.70;;;;;;;11.92;66.53;96906.66;4862296;29;20203;-75
2022/11/29 00:55:47;;;;;;;10.40;6.65;;;;;;;11.87;66.62;96901.41;4876491;28;20262;-75
2022/11/29 00:58:12;;;;;;;12.05;6.97;;;;;;;11.81;66.56;96906.63;4869974;28;20216;-75
2022/11/29 01:00:37;;;;;;;11.35;7.18;;;;;;;11.79;66.38;96913.94;4857130;28;20219;-75
2022/11/29 01:03:03;;;;;;;9.13;5.75;;;;;;;11.74;66.59;96911.31;4874762;28;20259;-76
2022/11/29 01:05:29;;;;;;;10.82;7.10;;;;;;;11.76;66.79;96911.84;4878923;28;20364;-75
2022/11/29 01:07:55;;;;;;;9.45;6.38;;;;;;;11.72;67.18;96912.59;4869416;28;20329;-75
2022/11/29 01:10:20;;;;;;;10.05;5.95;;;;;;;11.70;66.81;96914.69;4873704;28;20766;-75
2022/11/29 01:12:46;;;;;;;11.32;6.15;;;;;;;11.74;66.69;96913.91;4864236;28;20281;-75
2022/11/29 01:15:11;;;;;;;10.23;6.07;;;;;;;11.74;67.03;96915.75;4870234;28;20200;-75
2022/11/29 01:17:38;;;;;;;8.75;5.25;;;;;;;11.76;66.83;96913.66;4864388;29;20165;-75
2022/11/29 01:20:05;;;;;;;8.93;5.78;;;;;;;11.77;66.84;96917.81;4873903;28;20195;-75
2022/11/29 01:22:31;;;;;;;9.50;5.60;;;;;;;11.74;67.00;96910.53;4853191;29;20255;-75
2022/11/29 01:24:56;;;;;;;11.20;6.40;;;;;;;11.74;66.96;96911.31;4873720;28;20368;-75
2022/11/29 01:27:21;;;;;;;9.35;5.82;;;;;;;11.74;67.26;96918.38;4865023;29;20706;-75
2022/11/29 01:29:47;;;;;;;8.57;5.47;;;;;;;11.74;66.81;96913.16;4876991;28;20158;-75
2022/11/29 01:32:12;;;;;;;8.38;5.22;;;;;;;11.80;66.85;96918.09;4874882;28;20562;-75
2022/11/29 01:34:38;;;;;;;10.05;6.20;;;;;;;11.78;66.81;96922.00;4857466;29;20217;-75
2022/11/29 01:37:03;;;;;;;8.73;5.00;;;;;;;11.75;67.05;96931.13;4860236;29;20381;-75
2022/11/29 01:39:29;;;;;;;7.65;5.20;;;;;;;11.72;66.72;96921.22;4854810;29;20216;-75
2022/11/29 01:41:54;;;;;;;8.18;4.90;;;;;;;11.72;67.09;96923.84;4865307;28;20191;-75
2022/11/29 01:44:19;;;;;;;7.05;4.57;;;;;;;11.72;66.93;96936.88;4868434;28;20213;-75
2022/11/29 01:46:46;;;;;;;8.30;5.53;;;;;;;11.76;66.89;96930.09;4857881;29;20207;-75
2022/11/29 01:49:14;;;;;;;7.15;4.65;;;;;;;11.78;67.36;96935.06;4854044;28;20355;-75
2022/11/29 01:51:52;;;;;;;9.55;5.50;;;;;;;11.86;66.88;96931.16;4836024;29;20699;-75
2022/11/29 01:54:18;;;;;;;10.15;6.03;;;;;;;11.74;66.79;96929.56;4862987;29;20366;-76
2022/11/29 01:56:44;;;;;;;8.25;5.15;;;;;;;11.78;66.51;96932.44;4854996;29;20289;-75
2022/11/29 01:59:12;;;;;;;7.03;4.63;;;;;;;11.76;67.32;96926.72;4848979;29;20224;-75
2022/11/29 02:01:37;;;;;;;8.90;5.47;;;;;;;11.72;67.05;96926.44;4834346;29;20219;-75
2022/11/29 02:04:03;;;;;;;9.48;5.20;;;;;;;11.70;66.86;96925.88;4855518;29;20282;-76
2022/11/29 02:06:29;;;;;;;7.88;5.20;;;;;;;11.69;67.04;96926.19;4860255;29;20191;-75
2022/11/29 02:08:54;;;;;;;6.00;4.00;;;;;;;11.70;67.30;96933.72;4854762;29;20176;-75
2022/11/29 02:11:29;;;;;;;7.88;5.10;;;;;;;11.83;66.82;96921.25;4871683;28;20211;-75
2022/11/29 02:14:06;;;;;;;7.53;4.97;;;;;;;11.96;66.75;96925.97;4857672;29;20215;-75
2022/11/29 02:16:38;;;;;;;7.72;5.28;;;;;;;11.91;66.75;96924.16;4859783;28;20323;-75
2022/11/29 02:19:22;;;;;;;8.50;6.10;;;;;;;11.91;66.80;96925.97;4877608;28;20368;-75
2022/11/29 02:21:58;;;;;;;8.65;5.32;;;;;;;11.97;66.59;96922.34;4862039;28;20207;-75
2022/11/29 02:24:48;;;;;;;8.32;5.43;;;;;;;11.96;66.36;96918.16;4870978;28;20592;-75
2022/11/29 02:27:29;;;;;;;8.50;5.20;;;;;;;11.80;66.65;96923.31;4855937;29;20359;-75
2022/11/29 02:30:19;;;;;;;8.05;4.88;;;;;;;11.99;66.36;96922.84;4848321;29;20284;-75
2022/11/29 02:33:15;;;;;;;6.95;4.55;;;;;;;12.03;66.44;96921.31;4859331;28;20161;-75
2022/11/29 02:36:18;;;;;;;6.78;4.47;;;;;;;11.98;66.38;96926.53;4855832;29;20200;-75
2022/11/29 02:38:55;;;;;;;8.43;4.43;;;;;;;11.97;66.02;96923.09;4857104;29;20247;-75
2022/11/29 02:41:42;;;;;;;5.60;4.38;;;;;;;11.93;66.40;96926.50;4866635;28;20275;-75
2022/11/29 02:44:29;;;;;;;5.80;4.05;;;;;;;12.07;66.11;96927.56;4874097;28;20217;-76
2022/11/29 02:47:18;;;;;;;6.05;4.40;;;;;;;11.99;65.79;96928.06;4853872;28;20611;-75
2022/11/29 02:49:58;;;;;;;6.78;4.45;;;;;;;12.07;66.02;96934.63;4855934;28;20203;-76
2022/11/29 02:52:31;;;;;;;6.60;4.53;;;;;;;11.94;66.06;96936.69;4856406;28;20295;-76
2022/11/29 02:55:05;;;;;;;6.47;4.32;;;;;;;12.01;65.77;96936.41;4861045;29;20271;-76
2022/11/29 02:57:55;;;;;;;5.25;3.85;;;;;;;12.02;65.94;96940.59;4865759;28;20240;-75
2022/11/29 03:00:22;;;;;;;7.72;4.55;;;;;;;11.82;66.49;96936.09;4869321;28;20178;-75
2022/11/29 03:02:50;;;;;;;5.07;4.15;;;;;;;11.96;66.08;96939.03;4870089;28;20264;-75
2022/11/29 03:05:55;;;;;;;6.38;4.28;;;;;;;12.03;65.89;96942.19;4874500;28;20268;-75
2022/11/29 03:08:36;;;;;;;5.22;4.13;;;;;;;11.95;66.22;96940.06;4857268;29;20195;-75
2022/11/29 03:11:23;;;;;;;5.93;4.28;;;;;;;12.00;66.03;96942.69;4869195;28;20293;-76
2022/11/29 03:14:17;;;;;;;6.43;4.07;;;;;;;12.08;65.77;96944.81;4864974;28;20661;-75
2022/11/29 03:17:33;;;;;;;5.88;4.03;;;;;;;12.06;65.73;96944.25;4856200;29;20231;-75
2022/11/29 03:20:26;;;;;;;5.13;3.75;;;;;;;11.90;66.03;96945.25;4874111;28;20211;-75
2022/11/29 03:23:16;;;;;;;7.82;4.78;;;;;;;11.88;66.34;96945.50;4871140;28;20383;-75
2022/11/29 03:25:52;;;;;;;6.30;4.43;;;;;;;11.97;65.88;96958.88;4857715;28;20216;-75
2022/11/29 03:28:43;;;;;;;7.82;5.30;;;;;;;11.86;66.58;96947.59;4861984;29;20196;-75
2022/11/29 03:31:20;;;;;;;7.57;5.63;;;;;;;11.86;66.47;96947.59;4851164;29;20268;-75
2022/11/29 03:34:07;;;;;;;6.88;5.03;;;;;;;11.84;66.39;96952.28;4877215;28;20660;-75
2022/11/29 03:36:39;;;;;;;7.07;4.80;;;;;;;11.87;65.88;96950.97;4858984;29;20307;-75
2022/11/29 03:39:10;;;;;;;6.60;4.65;;;;;;;11.85;66.07;96960.91;4857140;28;20706;-75
2022/11/29 03:41:54;;;;;;;6.97;5.10;;;;;;;11.83;66.27;96952.56;4857852;29;20176;-75
2022/11/29 03:44:23;;;;;;;9.10;5.72;;;;;;;11.81;66.08;96958.78;4868367;28;20658;-75
2022/11/29 03:47:12;;;;;;;7.75;5.40;;;;;;;12.00;65.92;96963.56;4874184;28;20427;-75
2022/11/29 03:49:41;;;;;;;8.02;5.80;;;;;;;11.85;66.00;96963.50;4875112;28;20234;-75
2022/11/29 03:52:49;;;;;;;7.82;5.82;;;;;;;12.10;65.62;96963.59;4876827;28;20741;-75
2022/11/29 03:55:20;;;;;;;9.50;5.95;;;;;;;11.87;66.11;96969.25;4841138;29;20309;-75
2022/11/29 03:57:52;;;;;;;9.63;6.75;;;;;;;11.79;66.60;96968.72;4862956;29;20168;-76
2022/11/29 04:00:17;;;;;;;8.98;5.68;;;;;;;11.70;66.38;96970.22;4856177;29;20301;-76
2022/11/29 04:02:52;;;;;;;10.63;7.03;;;;;;;11.75;65.98;96962.41;4859574;29;20255;-76
2022/11/29 04:05:43;;;;;;;10.38;7.00;;;;;;;11.80;66.19;96965.03;4861176;29;20364;-75
2022/11/29 04:08:46;;;;;;;9.80;6.88;;;;;;;11.83;66.67;96970.81;4859925;28;20200;-75
2022/11/29 04:11:26;;;;;;;9.57;6.28;;;;;;;11.70;66.69;96959.78;4863174;29;20252;-76
2022/11/29 04:14:11;;;;;;;9.88;6.57;;;;;;;11.69;66.83;96968.69;4852523;29;20204;-76
2022/11/29 04:16:58;;;;;;;10.95;7.38;;;;;;;11.60;67.03;96970.19;4878260;28;20191;-76
2022/11/29 04:19:44;;;;;;;12.15;7.25;;;;;;;11.65;67.04;96967.59;4874159;28;20251;-76
2022/11/29 04:22:10;;;;;;;11.55;7.95;;;;;;;11.59;66.65;96973.84;4869869;28;20256;-76
2022/11/29 04:24:55;;;;;;;12.15;7.93;;;;;;;11.66;66.83;96971.78;4862885;28;20108;-76
2022/11/29 04:27:42;;;;;;;;;;;;;;;11.71;66.86;96971.03;4871039;28;20622;-76
2022/11/29 04:30:20;;;;;;;13.82;8.27;;;;;;;11.52;67.13;96974.09;4872667;28;20072;-76
2022/11/29 04:33:22;;;;;;;15.23;9.10;;;;;;;11.63;67.13;96969.69;4854993;29;20192;-76
2022/11/29 04:35:56;;;;;;;13.48;8.23;;;;;;;11.49;67.42;96979.03;4861195;28;20326;-76
2022/11/29 04:39:04;;;;;;;12.20;7.05;;;;;;;11.67;66.91;96989.03;4854587;28;20268;-76
2022/11/29 04:42:03;;;;;;;10.75;6.90;;;;;;;11.67;66.89;96986.41;4825539;29;20205;-76
2022/11/29 04:44:37;;;;;;;11.20;6.75;;;;;;;11.58;66.90;96998.34;4842574;29;20220;-76
2022/11/29 04:47:21;;;;;;;10.77;6.93;;;;;;;11.59;66.97;96997.31;4853743;29;20700;-76
2022/11/29 04:50:01;;;;;;;12.65;7.90;;;;;;;11.56;67.08;96995.22;4858186;28;20287;-76
2022/11/29 04:52:59;;;;;;;13.52;8.35;;;;;;;11.62;66.60;96999.44;4864721;29;20259;-76
2022/11/29 04:55:48;;;;;;;10.07;7.30;;;;;;;11.65;66.67;96992.91;4867285;28;20772;-76
2022/11/29 04:58:37;;;;;;;10.23;7.13;;;;;;;11.62;66.60;96994.22;4854928;29;20630;-76
2022/11/29 05:01:22;;;;;;;13.65;9.48;;;;;;;11.58;66.57;97004.38;4874004;28;20290;-76
2022/11/29 05:03:47;;;;;;;12.85;7.78;;;;;;;11.39;67.15;97009.22;4872284;28;20706;-76
2022/11/29 05:06:21;;;;;;;11.95;7.28;;;;;;;11.53;66.98;97006.97;4877675;28;20284;-76
2022/11/29 05:09:09;;;;;;;11.77;8.00;;;;;;;11.61;67.03;97009.06;4863603;28;20183;-76
2022/11/29 05:12:00;;;;;;;10.70;6.65;;;;;;;11.61;66.85;97009.06;4871453;28;20631;-76
2022/11/29 05:14:45;;;;;;;11.38;6.78;;;;;;;11.69;66.33;97018.22;4871255;28;20244;-76
2022/11/29 05:17:34;;;;;;;11.63;7.68;;;;;;;11.61;66.82;97024.69;4876255;28;20445;-76
2022/11/29 05:20:10;;;;;;;12.35;7.13;;;;;;;11.69;66.53;97020.06;4860686;29;20394;-76
2022/11/29 05:22:35;;;;;;;10.60;7.13;;;;;;;11.54;67.19;97026.00;4869775;28;20659;-76
2022/11/29 05:25:17;;;;;;;9.23;6.25;;;;;;;11.71;66.64;97023.97;4857518;29;20299;-76
2022/11/29 05:27:46;;;;;;;9.32;5.68;;;;;;;11.64;66.99;97028.63;4869039;28;20271;-76
2022/11/29 05:30:12;;;;;;;9.93;6.68;;;;;;;11.62;66.77;97036.72;4861372;28;20170;-76
2022/11/29 05:32:48;;;;;;;8.85;6.57;;;;;;;11.69;66.61;97046.16;4877526;28;20370;-76
2022/11/29 05:35:16;;;;;;;10.52;6.38;;;;;;;11.57;66.53;97049.72;4871828;28;20208;-76
2022/11/29 05:37:51;;;;;;;9.52;6.70;;;;;;;11.67;66.98;97045.59;4878939;28;20729;-76
2022/11/29 05:40:27;;;;;;;12.05;7.70;;;;;;;11.67;66.74;97049.00;4873441;28;20234;-76
2022/11/29 05:43:14;;;;;;;11.88;7.22;;;;;;;11.71;66.47;97057.88;4868201;28;20298;-76
2022/11/29 05:45:39;;;;;;;11.52;7.00;;;;;;;11.54;67.09;97062.50;4877021;28;20745;-76
2022/11/29 05:48:25;;;;;;;9.95;6.63;;;;;;;11.71;66.25;97068.31;4856140;29;20359;-76
2022/11/29 05:51:20;;;;;;;9.20;6.20;;;;;;;11.68;66.37;97066.19;4871800;28;20294;-76
2022/11/29 05:53:53;;;;;;;8.48;5.95;;;;;;;11.57;66.61;97075.81;4852243;28;20632;-76
2022/11/29 05:56:31;;;;;;;9.10;6.18;;;;;;;11.62;66.59;97067.22;4866749;28;20283;-76
2022/11/29 05:59:00;;;;;;;9.48;6.53;;;;;;;11.51;66.81;97079.41;4874441;28;20298;-76
2022/11/29 06:01:36;;;;;;;10.02;6.43;;;;;;;11.60;66.46;97084.94;4858730;29;20331;-76
2022/11/29 06:04:22;;;;;;;9.48;5.65;;;;;;;11.64;66.36;97090.44;4848316;28;20209;-76
2022/11/29 06:06:56;;;;;;;10.00;6.55;;;;;;;11.56;66.79;97084.66;4880251;28;20204;-76
2022/11/29 06:09:29;;;;;;;8.90;5.85;;;;;;;11.45;67.10;97088.25;4855892;28;20200;-76
2022/11/29 06:12:01;;;;;;;11.70;7.70;;;;;;;11.60;66.35;97101.38;4867714;28;20208;-76
2022/11/29 06:14:45;;;;;;;13.07;8.95;;;;;;;11.50;66.75;97096.09;4872680;28;20200;-76
2022/11/29 06:17:45;;;;;;;12.77;8.63;;;;;;;11.59;66.61;97096.41;4851744;29;20384;-76
2022/11/29 06:20:29;;;;;;;11.80;7.10;;;;;;;11.66;66.77;97102.19;4857852;29;20280;-76
2022/11/29 06:23:19;;;;;;;9.13;6.00;;;;;;;11.67;65.70;97100.34;4872807;28;20231;-76
2022/11/29 06:26:09;;;;;;;11.70;6.32;;;;;;;11.69;66.49;97104.31;4869348;28;20243;-76
2022/11/29 06:29:12;;;;;;;12.50;6.75;;;;;;;11.70;65.74;97105.06;4871327;28;20211;-75
2022/11/29 06:31:47;;;;;;;10.93;6.40;;;;;;;11.54;66.22;97112.03;4858784;29;20190;-76
2022/11/29 06:34:18;;;;;;;12.35;7.60;;;;;;;11.43;66.74;97109.38;4868921;28;20321;-76
2022/11/29 06:36:50;;;;;;;11.02;7.03;;;;;;;11.51;66.70;97104.72;4873640;28;20192;-75
2022/11/29 06:39:15;;;;;;;9.98;6.45;;;;;;;11.38;66.49;97104.13;4855228;29;20203;-76
2022/11/29 06:41:41;;;;;;;12.27;8.07;;;;;;;11.30;66.45;97106.41;4846631;28;20177;-76
2022/11/29 06:44:07;;;;;;;10.60;6.60;;;;;;;11.30;67.01;97107.19;4858687;28;20290;-76
2022/11/29 06:46:49;;;;;;;13.95;7.95;;;;;;;11.40;66.42;97112.47;4874074;28;20216;-76
2022/11/29 06:49:22;;;;;;;11.95;7.80;;;;;;;11.41;66.91;97119.25;4871268;28;20176;-76
2022/11/29 06:52:22;;;;;;;12.07;8.02;;;;;;;11.41;66.42;97115.84;4855288;29;20251;-76
2022/11/29 06:55:00;;;;;;;13.85;8.98;;;;;;;11.38;66.60;97114.53;4847660;29;20321;-76
2022/11/29 06:57:45;;;;;;;14.63;8.50;;;;;;;11.21;67.29;97111.28;4874516;28;20183;-75
2022/11/29 07:00:25;;;;;;;14.35;10.18;;;;;;;11.22;67.45;97120.66;4872850;28;20264;-76
2022/11/29 07:03:01;;;;;;;14.50;10.15;;;;;;;11.27;66.99;97117.31;4873632;28;20207;-76
2022/11/29 07:05:28;;;;;;;13.48;9.15;;;;;;;11.15;67.45;97122.72;4841047;29;20307;-76
2022/11/29 07:07:56;;;;;;;17.95;9.82;;;;;;;11.15;67.36;97125.31;4862668;29;20176;-76
2022/11/29 07:10:22;;;;;;;14.43;9.70;;;;;;;11.17;67.09;97120.63;4867968;28;20285;-76
2022/11/29 07:12:49;;;;;;;12.85;9.00;;;;;;;11.22;67.07;97126.69;4847286;29;20199;-76
2022/11/29 07:15:17;;;;;;;14.50;9.38;;;;;;;11.24;66.81;97129.81;4841741;29;20311;-76
2022/11/29 07:17:53;;;;;;;12.77;8.85;;;;;;;11.34;67.12;97128.31;4859209;29;20271;-76
2022/11/29 07:20:37;;;;;;;13.27;8.23;;;;;;;11.23;67.28;97125.63;4851451;29;20285;-76
2022/11/29 07:23:27;;;;;;;13.05;8.40;;;;;;;11.45;67.21;97129.97;4870060;28;20215;-76
2022/11/29 07:26:22;;;;;;;12.02;7.63;;;;;;;11.44;66.52;97133.59;4859481;29;20323;-76
2022/11/29 07:28:52;;;;;;;13.05;8.68;;;;;;;11.41;66.87;97137.50;4871459;28;20161;-76
2022/11/29 07:31:24;;;;;;;9.98;7.65;;;;;;;11.32;67.22;97144.19;4857751;28;20655;-76
2022/11/29 07:34:10;;;;;;;10.27;7.55;;;;;;;11.47;66.39;97140.16;4872741;28;20286;-76
2022/11/29 07:37:03;;;;;;;13.73;8.93;;;;;;;11.46;66.68;97143.78;4856869;28;20321;-76
2022/11/29 07:40:04;;;;;;;10.48;7.40;;;;;;;11.49;66.43;97148.50;4849803;29;20302;-76
2022/11/29 07:42:51;;;;;;;13.23;7.88;;;;;;;11.54;66.38;97146.72;4865217;28;20182;-76
2022/11/29 07:45:30;;;;;;;11.65;7.15;;;;;;;11.52;66.26;97151.41;4867107;28;20269;-76
2022/11/29 07:47:56;;;;;;;11.00;7.07;;;;;;;11.37;66.54;97151.28;4855540;28;20211;-76
2022/11/29 07:50:21;;;;;;;11.02;7.18;;;;;;;11.35;66.78;97153.34;4856052;29;20626;-76
2022/11/29 07:52:47;;;;;;;10.32;6.60;;;;;;;11.36;67.05;97150.50;4872751;28;20599;-76
2022/11/29 07:55:14;;;;;;;9.88;6.25;;;;;;;11.38;67.02;97158.84;4876020;28;20305;-76
2022/11/29 07:57:39;;;;;;;7.65;5.93;;;;;;;11.38;66.86;97156.25;4851251;29;20722;-76
2022/11/29 08:00:05;;;;;;;11.70;7.88;;;;;;;11.37;66.67;97159.88;4869631;28;20319;-76
2022/11/29 08:02:31;;;;;;;9.40;6.43;;;;;;;11.36;67.03;97155.72;4857629;29;20359;-76
2022/11/29 08:04:56;;;;;;;11.35;7.30;;;;;;;11.39;66.95;97163.03;4869801;28;20178;-76
2022/11/29 08:07:22;;;;;;;9.90;6.35;;;;;;;11.41;67.00;97160.97;4862508;28;20165;-76
2022/11/29 08:09:47;;;;;;;11.82;6.97;;;;;;;11.43;66.74;97160.72;4867052;28;20266;-76
2022/11/29 08:12:13;;;;;;;8.90;6.38;;;;;;;11.43;66.75;97163.34;4862426;28;20289;-76
2022/11/29 08:14:38;;;;;;;10.70;6.68;;;;;;;11.46;66.79;97172.47;4864165;28;20689;-76
2022/11/29 08:17:03;;;;;;;10.38;6.90;;;;;;;11.44;66.63;97165.66;4860118;28;20374;-76
2022/11/29 08:19:29;;;;;;;12.50;7.65;;;;;;;11.48;66.76;97175.59;4865919;29;20215;-76
2022/11/29 08:21:54;;;;;;;14.13;9.68;;;;;;;11.43;66.74;97177.16;4872558;28;20245;-76
2022/11/29 08:24:20;;;;;;;18.77;12.50;;;;;;;11.46;66.95;97172.47;4885583;28;20223;-76
2022/11/29 08:26:45;;;;;;;21.10;14.95;;;;;;;11.47;67.01;97174.03;4885386;28;20330;-76
2022/11/29 08:29:11;;;;;;;28.20;17.77;;;;;;;11.47;66.67;97180.03;4885923;28;20223;-76
2022/11/29 08:31:36;;;;;;;22.98;15.38;;;;;;;11.50;67.05;97178.75;4885651;28;20207;-76
2022/11/29 08:34:07;;;;;;;23.23;15.13;;;;;;;11.59;66.82;97182.47;4885422;28;20269;-76
2022/11/29 08:36:32;;;;;;;23.08;13.23;;;;;;;11.50;66.94;97183.94;4879895;28;20235;-76
2022/11/29 08:39:00;;;;;;;20.55;13.65;;;;;;;11.51;67.09;97188.91;4868421;29;20368;-76
2022/11/29 08:41:26;;;;;;;21.73;13.00;;;;;;;11.54;66.48;97191.03;4885064;28;20157;-76
2022/11/29 08:43:52;;;;;;;17.40;10.75;;;;;;;11.62;66.71;97195.03;4863369;29;20204;-76
2022/11/29 08:46:17;;;;;;;14.85;9.32;;;;;;;11.62;67.09;97198.41;4867292;29;20230;-76
2022/11/29 08:48:42;;;;;;;11.63;8.07;;;;;;;11.62;66.83;97193.19;4884711;28;20374;-76
2022/11/29 08:51:08;;;;;;;11.77;7.07;;;;;;;11.65;66.63;97198.94;4885200;28;20223;-76
2022/11/29 08:53:43;;;;;;;13.73;7.47;;;;;;;11.66;66.56;97198.69;4870864;28;20607;-76
2022/11/29 08:56:14;;;;;;;13.27;7.60;;;;;;;11.73;66.47;97199.25;4885058;28;20346;-76
2022/11/29 08:58:39;;;;;;;11.50;7.30;;;;;;;11.63;66.68;97204.41;4876339;28;20207;-76
2022/11/29 09:01:12;;;;;;;13.85;8.18;;;;;;;11.67;66.84;97207.28;4884961;28;20196;-76
2022/11/29 09:06:21;;;;;;;13.13;7.43;;;;;;;11.62;66.59;97208.84;4881041;28;20696;-76
2022/11/29 09:08:47;;;;;;;12.02;7.47;;;;;;;11.69;66.79;97213.84;4884414;28;20198;-76
2022/11/29 09:11:18;;;;;;;14.65;8.82;;;;;;;11.74;66.83;97215.72;4865473;28;20224;-76
2022/11/29 09:13:45;;;;;;;13.30;8.15;;;;;;;11.75;66.62;97219.88;4868967;28;20232;-76
2022/11/29 09:16:13;;;;;;;13.82;7.55;;;;;;;11.76;66.87;97227.44;4869090;29;20259;-76
2022/11/29 09:18:39;;;;;;;11.50;7.53;;;;;;;11.75;67.06;97218.03;4868539;29;20287;-76
2022/11/29 09:21:10;;;;;;;12.57;7.57;;;;;;;11.83;67.09;97226.47;4852710;28;20213;-76
2022/11/29 09:23:36;;;;;;;12.23;6.38;;;;;;;11.81;66.79;97230.09;4852072;29;20359;-76
2022/11/29 09:26:02;;;;;;;10.60;7.53;;;;;;;11.85;66.60;97224.38;4884473;28;20724;-76
2022/11/29 09:28:27;;;;;;;14.07;7.97;;;;;;;11.80;67.21;97228.50;4884216;28;20202;-76
2022/11/29 09:30:53;;;;;;;13.25;7.65;;;;;;;11.83;66.50;97229.06;4884715;28;20622;-76
2022/11/29 09:33:18;;;;;;;12.98;6.95;;;;;;;11.85;66.83;97232.97;4884522;28;20251;-77
2022/11/29 09:35:44;;;;;;;13.43;7.38;;;;;;;11.90;66.59;97234.84;4867534;28;20586;-76
2022/11/29 09:38:11;;;;;;;13.13;7.95;;;;;;;11.91;66.94;97241.66;4883982;28;20569;-76
2022/11/29 09:40:41;;;;;;;12.90;7.63;;;;;;;11.94;66.62;97236.75;4884332;28;20645;-76
2022/11/29 09:43:20;;;;;;;13.07;7.03;;;;;;;12.06;66.22;97239.13;4884292;28;20330;-76
2022/11/29 09:45:50;;;;;;;9.80;6.50;;;;;;;12.01;66.57;97249.56;4878887;28;20195;-76
2022/11/29 09:48:18;;;;;;;14.95;7.78;;;;;;;11.98;66.79;97242.25;4883610;28;20196;-76
2022/11/29 09:50:59;;;;;;;15.82;8.77;;;;;;;12.04;66.60;97246.44;4869587;28;20270;-76
2022/11/29 09:54:07;;;;;;;18.02;8.65;;;;;;;12.21;66.54;97245.50;4884058;28;20396;-76
2022/11/29 09:56:40;;;;;;;18.08;7.68;;;;;;;12.18;66.28;97244.97;4867568;28;20185;-76
2022/11/29 09:59:12;;;;;;;17.23;8.15;;;;;;;12.25;66.33;97246.56;4883892;28;20207;-76
2022/11/29 10:01:42;;;;;;;11.80;6.95;;;;;;;12.23;66.44;97246.81;4884001;28;20211;-76
2022/11/29 10:04:17;;;;;;;15.65;8.57;;;;;;;12.40;66.21;97249.25;4883713;28;20286;-76
2022/11/29 10:06:44;;;;;;;;;;;;;;;12.48;65.75;97255.84;4867669;29;20702;-76
2022/11/29 10:09:21;;;;;;;12.88;7.68;;;;;;;12.38;65.93;97261.78;4883979;28;20176;-76
2022/11/29 10:12:03;;;;;;;18.63;8.38;;;;;;;12.40;66.10;97258.91;4880171;28;20650;-76
2022/11/29 10:14:46;;;;;;;12.18;6.82;;;;;;;12.58;66.10;97261.09;4883773;28;20251;-75
2022/11/29 10:17:24;;;;;;;13.02;7.43;;;;;;;12.52;66.04;97259.50;4883188;28;20183;-76
2022/11/29 10:19:51;;;;;;;15.48;7.57;;;;;;;12.45;66.16;97251.88;4883530;28;20282;-76
2022/11/29 10:22:42;;;;;;;13.95;8.25;;;;;;;12.45;65.94;97256.34;4867896;29;20266;-76
2022/11/29 10:25:15;;;;;;;15.30;7.95;;;;;;;12.33;66.44;97253.91;4883539;28;20215;-76
2022/11/29 10:27:41;;;;;;;20.65;8.05;;;;;;;12.30;66.39;97259.66;4867599;29;20298;-76
2022/11/29 10:30:13;;;;;;;16.27;7.45;;;;;;;12.34;66.46;97263.34;4883392;28;20593;-76
2022/11/29 10:32:39;;;;;;;14.60;8.20;;;;;;;12.29;66.26;97256.25;4879363;28;20297;-76
2022/11/29 10:35:12;;;;;;;17.17;8.18;;;;;;;12.41;66.53;97258.66;4865358;28;20359;-76
2022/11/29 10:37:37;;;;;;;15.10;8.30;;;;;;;12.26;66.68;97253.38;4883199;28;20161;-76
2022/11/29 10:40:10;;;;;;;17.40;8.82;;;;;;;12.47;66.19;97255.03;4883209;28;20210;-75
2022/11/29 10:42:48;;;;;;;15.10;8.25;;;;;;;12.39;66.36;97252.91;4883260;28;20347;-76
2022/11/29 10:45:54;;;;;;;18.70;10.75;;;;;;;12.83;64.95;97252.56;4881660;28;20148;-76
2022/11/29 10:48:22;;;;;;;18.08;9.82;;;;;;;12.58;65.24;97252.47;4849460;29;20704;-75
2022/11/29 10:50:49;;;;;;;14.73;8.45;;;;;;;12.52;65.61;97252.44;4849601;29;20264;-76
2022/11/29 10:53:20;;;;;;;19.40;10.68;;;;;;;12.49;65.75;97252.97;4849551;29;20223;-76
2022/11/29 10:55:54;;;;;;;24.08;10.18;;;;;;;12.59;65.80;97257.44;4844261;28;20284;-76
2022/11/29 10:58:24;;;;;;;16.63;7.80;;;;;;;12.65;65.54;97253.81;4848931;29;20176;-76
2022/11/29 11:00:54;;;;;;;15.63;7.88;;;;;;;12.60;65.19;97253.78;4865661;29;20293;-76
2022/11/29 11:03:27;;;;;;;16.17;7.80;;;;;;;12.67;65.13;97248.34;4842782;29;20235;-76
2022/11/29 11:05:57;;;;;;;13.70;6.57;;;;;;;12.55;65.44;97259.00;4849567;29;20188;-76
2022/11/29 11:08:24;;;;;;;13.63;7.55;;;;;;;12.65;65.29;97260.88;4864911;29;20195;-75
2022/11/29 11:10:52;;;;;;;15.13;7.10;;;;;;;12.59;65.05;97251.44;4847744;29;20162;-75
2022/11/29 11:13:21;;;;;;;14.18;6.90;;;;;;;12.52;65.38;97252.44;4849712;28;20184;-76
2022/11/29 11:15:46;;;;;;;13.82;7.38;;;;;;;12.51;65.32;97242.28;4865128;28;20169;-75
2022/11/29 11:18:24;;;;;;;14.32;7.95;;;;;;;12.64;65.04;97257.44;4849479;29;20199;-75
2022/11/29 11:20:56;;;;;;;13.02;7.32;;;;;;;12.53;65.49;97250.63;4866854;28;20120;-76
2022/11/29 11:23:28;;;;;;;14.32;7.53;;;;;;;12.55;65.57;97259.00;4882842;28;20282;-76
2022/11/29 11:26:02;;;;;;;13.52;7.20;;;;;;;12.64;65.60;97254.84;4882912;28;20235;-75
2022/11/29 11:28:32;;;;;;;16.23;8.00;;;;;;;12.60;65.27;97256.41;4866619;28;20206;-75
2022/11/29 11:31:00;;;;;;;16.40;7.93;;;;;;;12.50;65.27;97259.75;4861658;29;20892;-77
2022/11/29 11:33:32;;;;;;;15.07;8.27;;;;;;;12.60;65.26;97260.84;4878616;28;20283;-77
2022/11/29 11:36:03;;;;;;;17.05;8.10;;;;;;;12.66;64.83;97262.44;4885303;28;20172;-77
2022/11/29 11:38:28;;;;;;;14.27;6.85;;;;;;;12.54;64.82;97255.59;4870895;28;20219;-76
2022/11/29 11:41:15;;;;;;;17.90;5.95;;;;;;;12.72;64.73;97258.81;4869105;28;20177;-77
2022/11/29 11:43:41;;;;;;;13.95;6.57;;;;;;;12.57;64.76;97262.13;4882255;28;20605;-77
2022/11/29 11:46:06;;;;;;;19.02;7.18;;;;;;;12.52;65.11;97262.09;4847154;29;20191;-77
2022/11/29 11:48:32;;;;;;;11.50;6.38;;;;;;;12.46;65.64;97261.31;4887639;28;20210;-77
2022/11/29 11:50:59;;;;;;;17.63;6.90;;;;;;;12.59;64.77;97261.88;4888121;28;20161;-77
2022/11/29 11:53:35;;;;;;;13.55;6.90;;;;;;;12.72;64.51;97269.25;4874271;28;20223;-77
2022/11/29 11:56:09;;;;;;;10.20;6.35;;;;;;;12.65;65.20;97266.09;4872366;29;20215;-77
2022/11/29 11:58:48;;;;;;;13.18;7.13;;;;;;;12.67;64.81;97264.78;4887553;28;20719;-77
2022/11/29 12:01:15;;;;;;;12.40;7.65;;;;;;;12.51;65.14;97263.16;4885579;28;20323;-77
2022/11/29 12:04:10;;;;;;;13.88;6.95;;;;;;;12.57;65.25;97269.19;4887486;28;20286;-77
2022/11/29 12:06:36;;;;;;;15.63;7.55;;;;;;;12.42;65.39;97257.63;4887225;28;20301;-77
2022/11/29 12:09:04;;;;;;;11.77;6.60;;;;;;;12.43;65.59;97272.25;4887355;28;20248;-77